• Join FlightAware (Why Join?)
  • Login
  • US Flag 
01:32PM EDT


 

Airport Tracker/Info


-or-


 

Live Flight TrackerFlight Track Log ✈ UAL4336 ✈ 09-Nov-2013 ✈ KMSY - KEWR

Flight Track Log - Related Links

Times and Time Zones

All times are in EST time to prevent confusion due to time zone crossing. See the UAL4336 flight status page for this flight to view local times or setup timezone preferences in your user account.

Time Position Orientation Groundspeed Altitude Reporting Facility
EST Latitude Longitude Course Direction KTS MPH feet Rate Location/Type
06:19PM 30.0114 -90.2428 47° Northeast 152 175 500  Level Houston Center
06:19PM 30.0264 -90.2403 North 171 197 1,100 1,980 Climbing Houston Center
06:19PM 30.0300 -90.2372 36° Northeast 173 199 1,300 1,920 Climbing Houston Center
06:20PM 30.0744 -90.2131 25° Northeast 270 311 3,100 1,980 Climbing Houston Center
06:21PM 30.1089 -90.1442 60° Northeast 251 289 5,400 2,340 Climbing Houston Center
06:22PM 30.2274 -89.9746 52° Northeast  Level Estimated
06:22PM 30.1481 -90.0686 59° Northeast 268 308 7,900  Level Houston Center
06:23PM 30.3054 -89.8795 49° Northeast  Level Estimated
06:23PM 30.2114 -89.9822 50° Northeast 297 342 10,500  Level Houston Center
06:24PM 30.3832 -89.7842 47° Northeast  Level Estimated
06:24PM 30.2753 -89.9156 42° Northeast 309 356 11,900  Level Houston Center
06:26PM 30.3467 -89.8417 42° Northeast 334 384 13,200 1,260 Climbing Houston Center
06:27PM 30.4344 -89.7478 43° Northeast 387 445 14,500 1,320 Climbing Houston Center
06:28PM 30.5125 -89.6569 45° Northeast 396 456 16,000 1,440 Climbing Houston Center
06:29PM 30.5747 -89.5489 56° Northeast 403 464 17,500 1,260 Climbing Houston Center
06:30PM 30.6383 -89.4389 56° Northeast 407 468 18,700 1,260 Climbing Houston Center
06:31PM 30.6978 -89.3244 59° Northeast 412 474 20,200 1,440 Climbing Houston Center
06:32PM 30.7558 -89.2094 60° Northeast 412 474 21,700 1,440 Climbing Houston Center
06:33PM 30.8164 -89.0956 58° Northeast 414 476 23,200 1,320 Climbing Houston Center
06:34PM 30.8744 -88.9828 59° Northeast 409 471 24,500 1,320 Climbing Houston Center
06:35PM 30.9403 -88.8575 58° Northeast 417 480 26,000 1,500 Climbing Houston Center
06:36PM 31.0008 -88.7439 58° Northeast 413 475 27,600 1,440 Climbing Houston Center
06:37PM 31.0656 -88.6167 59° Northeast 411 473 29,000 1,140 Climbing Houston Center
06:38PM 31.1267 -88.5014 58° Northeast 418 481 30,000 960 Climbing Houston Center
06:39PM 31.1875 -88.3836 59° Northeast 427 491 31,000 960 Climbing Houston Center
06:40PM 31.2472 -88.2719 58° Northeast 436 502 32,000 960 Climbing Houston Center
06:41PM 31.3108 -88.1483 59° Northeast 443 510 33,000 960 Climbing Houston Center
06:42PM 31.3844 -88.0011 60° Northeast 437 503 34,000 780 Climbing Houston Center
06:43PM 31.4489 -87.8739 59° Northeast 449 517 34,600 480 Climbing Houston Center
06:44PM 31.5158 -87.7458 58° Northeast 459 528 35,000 180 Climbing Houston Center
06:45PM 31.5950 -87.6217 53° Northeast 472 543 35,000  Level Houston Center
06:46PM 31.6786 -87.4922 53° Northeast 497 572 35,000  Level Houston Center
06:47PM 31.7689 -87.3586 52° Northeast 497 572 35,000  Level Atlanta Center
06:48PM 31.8431 -87.2342 55° Northeast 517 595 35,000  Level Atlanta Center
06:49PM 31.9322 -87.0953 53° Northeast 517 595 35,000  Level Atlanta Center
06:50PM 32.0167 -86.9611 53° Northeast 517 595 35,000  Level Atlanta Center
06:51PM 32.1036 -86.8217 54° Northeast 512 589 35,000  Level Atlanta Center
06:52PM 32.2069 -86.6753 50° Northeast 512 589 35,000  Level Atlanta Center
06:53PM 32.2911 -86.5353 55° Northeast 517 595 35,000  Level Atlanta Center
06:54PM 32.3692 -86.3922 57° Northeast 517 595 35,000  Level Atlanta Center
06:55PM 32.4594 -86.2544 52° Northeast 517 595 35,000  Level Atlanta Center
06:56PM 32.5494 -86.1111 53° Northeast 523 602 35,000  Level Atlanta Center
06:57PM 32.6353 -85.9725 54° Northeast 528 608 35,000  Level Atlanta Center
06:58PM 32.7208 -85.8314 54° Northeast 528 608 35,000  Level Atlanta Center
06:59PM 32.8064 -85.6897 54° Northeast 523 602 35,000  Level Atlanta Center
07:00PM 32.8936 -85.5478 54° Northeast 523 602 35,000  Level Atlanta Center
07:01PM 32.9789 -85.4058 54° Northeast 523 602 35,000  Level Atlanta Center
07:02PM 33.0594 -85.2856 51° Northeast 514 592 35,000  Level Atlanta Center
07:03PM 33.1444 -85.1428 55° Northeast 514 592 35,000  Level Atlanta Center
07:04PM 33.2292 -85.0000 55° Northeast 524 603 35,000  Level Atlanta Center
07:05PM 33.3156 -84.8542 55° Northeast 530 610 35,000  Level Atlanta Center
07:06PM 33.4000 -84.7106 55° Northeast 530 610 35,000  Level Atlanta Center
07:07PM 33.4864 -84.5644 55° Northeast 537 618 35,000  Level Atlanta Center
07:08PM 33.5725 -84.4203 54° Northeast 537 618 35,000  Level Atlanta Center
07:09PM 33.6647 -84.2633 55° Northeast 531 611 35,000  Level Atlanta Center
07:10PM 33.7419 -84.1261 56° Northeast 545 627 35,000  Level Atlanta Center
07:11PM 33.8297 -83.9839 53° Northeast 537 618 35,000  Level Atlanta Center
07:12PM 33.9131 -83.8386 55° Northeast 537 618 35,000  Level Atlanta Center
07:13PM 33.9961 -83.6931 55° Northeast 532 612 35,000  Level Atlanta Center
07:14PM 34.0897 -83.5347 54° Northeast 532 612 35,000  Level Atlanta Center
07:15PM 34.1725 -83.3886 56° Northeast 532 612 35,000  Level Atlanta Center
07:16PM 34.2572 -83.2447 55° Northeast 526 605 35,000  Level Atlanta Center
07:17PM 34.3394 -83.0978 56° Northeast 526 605 35,000  Level Atlanta Center
07:18PM 34.4219 -82.9533 55° Northeast 526 605 35,000  Level Atlanta Center
07:19PM 34.5019 -82.8036 57° Northeast 521 600 35,000  Level Atlanta Center
07:20PM 34.5839 -82.6611 55° Northeast 516 594 35,000  Level Atlanta Center
07:21PM 34.6678 -82.5183 54° Northeast 516 594 35,000  Level Atlanta Center
07:22PM 34.7492 -82.3728 56° Northeast 516 594 35,000  Level Atlanta Center
07:23PM 34.8306 -82.2269 56° Northeast 516 594 35,000  Level Atlanta Center
07:24PM 34.9119 -82.0858 55° Northeast 516 594 35,000  Level Atlanta Center
07:25PM 34.9931 -81.9369 56° Northeast 516 594 35,000  Level Atlanta Center
07:26PM 35.0739 -81.7928 56° Northeast 516 594 35,000  Level Atlanta Center
07:27PM 35.1503 -81.6458 58° Northeast 516 594 35,000  Level Atlanta Center
07:28PM 35.2331 -81.4961 56° Northeast 516 594 35,000  Level Atlanta Center
07:29PM 35.3111 -81.3511 57° Northeast 516 594 35,000  Level Atlanta Center
07:30PM 35.3914 -81.2083 55° Northeast 516 594 35,000  Level Atlanta Center
07:31PM 35.4592 -81.0683 59° Northeast 511 588 35,000  Level Atlanta Center
07:32PM 35.5411 -80.9225 55° Northeast 518 596 35,000  Level Atlanta Center
07:34PM 35.6764 -80.6806 55° Northeast 508 585 35,000  Level Washington Center
07:35PM 35.7536 -80.5319 57° Northeast 508 585 35,000  Level Washington Center
07:36PM 35.8306 -80.3828 58° Northeast 508 585 35,000  Level Washington Center
07:37PM 35.9094 -80.2339 57° Northeast 513 590 35,000  Level Washington Center
07:38PM 35.9906 -80.0819 57° Northeast 513 590 35,000  Level Washington Center
07:39PM 36.0711 -79.9350 56° Northeast 513 590 35,000  Level Washington Center
07:40PM 36.1533 -79.7878 55° Northeast 513 590 35,000  Level Washington Center
07:41PM 36.2403 -79.6275 56° Northeast 513 590 35,100  Climbing Washington Center
07:42PM 36.3156 -79.4972 54° Northeast 518 596 35,000 -60 Descending Washington Center
07:43PM 36.4019 -79.3442 55° Northeast 527 606 35,000  Level Washington Center
07:44PM 36.4836 -79.1983 55° Northeast 522 601 35,000  Level Washington Center
07:45PM 36.5672 -79.0547 54° Northeast 517 595 35,000  Level Washington Center
07:46PM 36.6483 -78.9083 55° Northeast 512 589 35,000  Level Washington Center
07:47PM 36.7386 -78.7411 56° Northeast 518 596 35,000  Level Washington Center
07:48PM 36.8217 -78.5886 56° Northeast 518 596 35,000  Level Washington Center
07:49PM 36.9206 -78.4731 43° Northeast 496 571 35,000  Level Washington Center
07:50PM 37.0228 -78.3833 35° Northeast 491 565 35,000  Level Washington Center
07:51PM 37.1336 -78.2778 37° Northeast 491 565 35,000  Level Washington Center
07:52PM 37.2425 -78.1719 38° Northeast 491 565 35,000  Level Washington Center
07:53PM 37.3403 -78.0786 37° Northeast 491 565 35,000  Level Washington Center
07:54PM 37.4722 -77.9547 37° Northeast 497 572 35,000  Level Washington Center
07:55PM 37.5700 -77.8608 37° Northeast 492 566 35,000  Level Washington Center
07:56PM 37.6783 -77.7564 37° Northeast 501 577 35,000  Level Washington Center
07:57PM 37.7864 -77.6492 38° Northeast 491 565 35,000  Level Washington Center
07:58PM 37.8967 -77.5392 38° Northeast 491 565 35,000  Level Washington Center
07:59PM 38.0028 -77.4286 39° Northeast 491 565 35,000  Level Washington Center
08:00PM 38.1192 -77.3072 39° Northeast 486 559 35,000  Level Washington Center
08:01PM 38.2250 -77.1961 40° Northeast 486 559 35,000  Level Washington Center
08:02PM 38.3328 -77.0872 38° Northeast 493 567 35,000  Level Washington Center
08:03PM 38.4383 -76.9781 39° Northeast 493 567 35,000  Level Washington Center
08:04PM 38.5461 -76.8631 40° Northeast 493 567 35,000  Level Washington Center
08:05PM 38.6556 -76.7481 39° Northeast 499 574 35,000  Level Washington Center
08:06PM 38.7628 -76.6353 39° Northeast 499 574 35,000 -120 Level Washington Center
08:07PM 38.8703 -76.5222 39° Northeast 499 574 34,800 -1,080 Descending Washington Center
08:08PM 38.9753 -76.4086 40° Northeast 499 574 32,900 -1,980 Descending Washington Center
08:09PM 39.0781 -76.2947 41° Northeast 499 574 30,900 -2,100 Descending Washington Center
08:10PM 39.1869 -76.1808 39° Northeast 499 574 28,800 -2,160 Descending Washington Center
08:11PM 39.2856 -76.0742 40° Northeast 504 580 26,600 -2,100 Descending Washington Center
08:12PM 39.3858 -75.9542 43° Northeast 504 580 24,700 -1,800 Descending Washington Center
08:13PM 39.4925 -75.8308 42° Northeast 482 555 23,100 -1,320 Descending Washington Center
08:14PM 39.5864 -75.7181 43° Northeast 469 540 22,100 -1,020 Descending Washington Center
08:15PM 39.6761 -75.6131 42° Northeast 444 511 21,100 -960 Descending Washington Center
08:16PM 39.7697 -75.4997 43° Northeast 443 510 20,200 -1,440 Descending Washington Center
08:17PM 39.8592 -75.3942 42° Northeast 443 510 18,200 -2,280 Descending Washington Center
08:18PM 39.9444 -75.2883 44° Northeast 433 498 15,600 -3,120 Descending Washington Center
08:19PM 40.0233 -75.1933 43° Northeast 407 468 12,100 -1,680 Descending Washington Center
08:21PM 40.1667 -75.0167 43° Northeast 334 384 10,600 -1,020 Descending New York TRACON
08:22PM 40.2333 -74.9333 44° Northeast 308 354 9,100 -1,320 Descending New York TRACON
08:23PM 40.2833 -74.8500 52° Northeast 300 345 8,000 -720 Descending New York TRACON
08:24PM 40.3500 -74.7833 37° Northeast 299 344 7,700 -600 Descending New York TRACON
08:25PM 40.4000 -74.7000 52° Northeast 297 342 6,800 -900 Descending New York TRACON
08:26PM 40.4667 -74.6500 30° Northeast 287 330 6,000 -480 Descending New York TRACON
08:27PM 40.5500 -74.6333 North 284 327 6,000  Level New York TRACON
08:28PM 40.6167 -74.6000 21° North 280 322 6,000 -300 Level New York TRACON
08:29PM 40.6833 -74.5333 37° Northeast 284 327 5,400 -600 Descending New York TRACON
08:30PM 40.7500 -74.4833 30° Northeast 267 307 4,800 -840 Descending New York TRACON
08:31PM 40.8000 -74.4000 52° Northeast 290 334 3,800 -960 Descending New York TRACON
08:32PM 40.8333 -74.3167 62° Northeast 290 334 3,000 -420 Descending New York TRACON
08:33PM 40.8833 -74.2333 52° Northeast 249 287 3,000  Level New York TRACON
08:34PM 40.8667 -74.1500 105° East 216 249 3,000  Level New York TRACON
08:35PM 40.8500 -74.1000 114° Southeast 215 247 3,000 -120 Level New York TRACON
08:36PM 40.8000 -74.1000 180° South 178 205 2,800 -480 Descending New York TRACON
08:37PM 40.7667 -74.1000 180° South 156 180 2,000 -840 Descending New York TRACON
08:38PM 40.7167 -74.1000 180° South 147 169 1,300 -780 Descending New York TRACON
08:39PM 40.7000 -74.1333 237° Southwest 129 148 500 -780 Descending New York TRACON